Widener, Arkansas
Current Conditions -  °F | °C
As of 8:53 PM on Friday 21 Nov 2014 (Local Time) from KAWM Reporting Station
Overcast Overcast  
Wind Chill: 52°   Ceiling: 8500
Heat Index: 52°   Visibility: 10mi
Dew Point: 44°   Wind: 8mph
Humidity: 74%   Direction: 130°SE
Pressure: 30.26"   Gusts: NA
Location:  35.02°N, 90.68°W
Report Text: KAWM 220253Z AUTO 13007KT 10SM OVC085 11/07 A3026 RMK AO2 SLP248 60000 T01110067 58003
Loading
Personal Weather Stations






























Interactive Weather Map New forecast layout! Learn more

10-Day Weather Forecast

Advertisements
Track Severe Weather on mobile